createdAt,value
2022-08-16T00:01:18.397Z,64.13
2022-08-16T00:03:20.281Z,64.15
2022-08-16T00:05:24.278Z,64.15
2022-08-16T00:07:25.917Z,64.12
2022-08-16T00:09:31.188Z,64.12
2022-08-16T00:11:33.061Z,64.06
2022-08-16T00:13:41.806Z,64.15
2022-08-16T00:15:52.239Z,63.84
2022-08-16T00:17:57.407Z,63.83
2022-08-16T00:19:59.284Z,64.04
2022-08-16T00:22:06.944Z,64.22
2022-08-16T00:24:30.887Z,63.90
2022-08-16T00:26:43.962Z,63.95
2022-08-16T00:28:46.337Z,64.38
2022-08-16T00:30:48.456Z,64.57
2022-08-16T00:32:57.079Z,64.99
2022-08-16T00:35:00.620Z,65.28
2022-08-16T00:37:04.620Z,65.68
2022-08-16T00:39:06.562Z,65.79
2022-08-16T00:41:17.667Z,65.56
2022-08-16T00:43:24.434Z,65.25
2022-08-16T00:45:58.008Z,65.39
2022-08-16T00:48:28.812Z,65.46
2022-08-16T00:50:36.490Z,65.24
2022-08-16T00:52:50.617Z,65.36
2022-08-16T00:54:53.054Z,65.45
2022-08-16T00:57:00.135Z,65.21
2022-08-16T00:59:03.274Z,65.41
2022-08-16T01:01:08.345Z,65.38
2022-08-16T01:03:14.066Z,65.36
2022-08-16T01:05:16.208Z,65.34
2022-08-16T01:07:20.128Z,65.38
2022-08-16T01:09:22.851Z,65.53
2022-08-16T01:11:27.114Z,65.38
2022-08-16T01:13:33.108Z,65.55
2022-08-16T01:15:43.481Z,65.75
2022-08-16T01:17:47.534Z,66.08
2022-08-16T01:20:00.801Z,66.00
2022-08-16T01:22:50.293Z,65.88
2022-08-16T01:24:55.465Z,66.04
2022-08-16T01:27:11.192Z,66.38
2022-08-16T01:29:23.638Z,66.36
2022-08-16T01:31:45.278Z,66.20
2022-08-16T01:33:49.937Z,65.79
2022-08-16T01:35:58.369Z,65.78
2022-08-16T01:38:25.808Z,65.87
2022-08-16T01:40:30.656Z,66.02
2022-08-16T01:42:32.368Z,65.85
2022-08-16T01:44:37.761Z,66.07
2022-08-16T01:46:43.301Z,66.56
2022-08-16T01:48:46.219Z,66.58
2022-08-16T01:51:09.052Z,66.78
2022-08-16T01:53:14.173Z,67.34
2022-08-16T01:55:18.010Z,67.72
2022-08-16T01:57:22.775Z,67.55
2022-08-16T01:59:26.554Z,67.11
2022-08-16T02:01:30.070Z,66.84
2022-08-16T02:03:36.600Z,66.89
2022-08-16T02:05:46.773Z,66.96
2022-08-16T02:07:53.866Z,67.30
2022-08-16T02:09:59.513Z,67.55
2022-08-16T02:12:50.372Z,67.46
2022-08-16T02:14:27.421Z,66.88
2022-08-16T02:16:29.280Z,66.63
2022-08-16T02:18:31.132Z,66.52
2022-08-16T02:20:42.469Z,66.45
2022-08-16T02:22:44.681Z,66.50
2022-08-16T02:24:48.637Z,66.57
2022-08-16T02:26:51.423Z,66.42
2022-08-16T02:28:53.046Z,66.46
2022-08-16T02:30:57.361Z,66.63
2022-08-16T02:32:59.943Z,66.84
2022-08-16T02:35:01.869Z,66.97
2022-08-16T02:37:03.677Z,67.28
2022-08-16T02:39:07.406Z,67.65
2022-08-16T02:41:12.005Z,68.01
2022-08-16T02:43:14.032Z,68.48
2022-08-16T02:45:17.467Z,68.64
2022-08-16T02:47:24.873Z,69.08
2022-08-16T02:49:58.674Z,69.23
2022-08-16T02:51:50.134Z,69.34
2022-08-16T02:53:52.359Z,69.27
2022-08-16T02:55:54.693Z,69.37
2022-08-16T02:57:56.364Z,68.84
2022-08-16T03:00:00.178Z,68.08
2022-08-16T03:02:08.112Z,67.57
2022-08-16T03:04:40.054Z,67.76
2022-08-16T03:06:39.125Z,68.30
2022-08-16T03:08:52.565Z,68.67
2022-08-16T03:10:55.199Z,68.43
2022-08-16T03:13:04.664Z,68.03
2022-08-16T03:15:15.240Z,67.82
2022-08-16T03:17:19.612Z,67.66
2022-08-16T03:19:48.007Z,67.71
2022-08-16T03:21:49.432Z,67.63
2022-08-16T03:23:53.825Z,67.26
2022-08-16T03:25:55.513Z,66.99
2022-08-16T03:27:57.485Z,67.18
2022-08-16T03:30:16.637Z,67.35
2022-08-16T03:32:19.485Z,67.86
2022-08-16T03:34:21.718Z,67.92
2022-08-16T03:36:31.014Z,67.41
2022-08-16T03:38:38.023Z,67.02
2022-08-16T03:41:25.244Z,66.79
2022-08-16T03:43:51.913Z,66.92
2022-08-16T03:45:55.364Z,67.18
2022-08-16T03:47:59.821Z,67.28
2022-08-16T03:50:03.150Z,67.47
2022-08-16T03:52:05.333Z,67.40
2022-08-16T03:54:12.244Z,67.09
2022-08-16T03:56:19.766Z,66.98
2022-08-16T03:58:22.040Z,67.16
2022-08-16T04:00:36.045Z,67.02
2022-08-16T04:02:43.887Z,67.06
2022-08-16T04:04:45.910Z,67.36
2022-08-16T04:06:47.602Z,67.60
2022-08-16T04:08:49.490Z,67.66
2022-08-16T04:10:52.986Z,67.60
2022-08-16T04:12:59.439Z,67.71
2022-08-16T04:15:07.824Z,67.64
2022-08-16T04:17:10.013Z,67.82
2022-08-16T04:19:12.136Z,67.61
2022-08-16T04:21:29.276Z,67.48
2022-08-16T04:23:31.535Z,67.84
2022-08-16T04:25:35.810Z,68.27
2022-08-16T04:27:38.541Z,68.39
2022-08-16T04:30:02.776Z,68.05
2022-08-16T04:32:05.591Z,67.84
2022-08-16T04:34:18.009Z,67.63
2022-08-16T04:36:20.517Z,67.34
2022-08-16T04:38:22.397Z,67.40
2022-08-16T04:40:25.501Z,67.68
2022-08-16T04:42:29.794Z,67.55
2022-08-16T04:44:53.109Z,67.89
2022-08-16T04:47:01.492Z,68.48
2022-08-16T04:49:05.322Z,68.66
2022-08-16T04:51:12.044Z,68.87
2022-08-16T04:53:15.883Z,68.91
2022-08-16T04:55:21.271Z,68.91
2022-08-16T04:57:33.801Z,68.80
2022-08-16T04:59:37.530Z,68.60
2022-08-16T05:01:57.614Z,68.69
2022-08-16T05:04:01.722Z,68.78
2022-08-16T05:06:09.256Z,68.56
2022-08-16T05:08:29.148Z,68.54
2022-08-16T05:10:32.612Z,68.49
2022-08-16T05:12:35.262Z,68.82
2022-08-16T05:14:45.222Z,69.11
2022-08-16T05:16:47.839Z,69.30
2022-08-16T05:18:56.841Z,69.26
2022-08-16T05:21:01.787Z,69.31
2022-08-16T05:23:11.598Z,69.25
2022-08-16T05:25:16.799Z,69.03
2022-08-16T05:27:18.479Z,68.53
2022-08-16T05:29:20.587Z,68.64
2022-08-16T05:31:30.399Z,68.68
2022-08-16T05:33:35.411Z,68.46
2022-08-16T05:35:37.243Z,68.57
2022-08-16T05:37:40.177Z,68.62
2022-08-16T05:39:41.912Z,68.59
2022-08-16T05:41:46.679Z,68.77
2022-08-16T05:43:50.705Z,68.80
2022-08-16T05:46:00.964Z,69.05
2022-08-16T05:48:02.999Z,69.11
2022-08-16T05:50:06.152Z,68.82
2022-08-16T05:52:13.782Z,69.12
2022-08-16T05:54:25.653Z,69.42
2022-08-16T05:56:27.908Z,69.81
2022-08-16T05:58:32.931Z,69.92
2022-08-16T06:00:35.416Z,69.88
2022-08-16T06:02:37.336Z,69.79
2022-08-16T06:04:44.898Z,69.82
2022-08-16T06:06:55.808Z,69.58
2022-08-16T06:08:58.325Z,69.44
2022-08-16T06:11:09.640Z,69.30
2022-08-16T06:13:12.444Z,69.25
2022-08-16T06:15:20.351Z,69.39
2022-08-16T06:17:24.125Z,69.48
2022-08-16T06:19:44.642Z,69.13
2022-08-16T06:21:55.379Z,69.04
2022-08-16T06:23:57.863Z,68.83
2022-08-16T06:26:03.895Z,68.90
2022-08-16T06:28:16.935Z,68.97
2022-08-16T06:30:19.775Z,69.06
2022-08-16T06:32:27.783Z,68.99
2022-08-16T06:34:55.373Z,69.15
2022-08-16T06:36:59.592Z,69.23
2022-08-16T06:39:01.589Z,69.46
2022-08-16T06:41:13.583Z,69.74
2022-08-16T06:43:16.005Z,69.70
2022-08-16T06:45:18.592Z,69.24
2022-08-16T06:47:23.407Z,68.73
2022-08-16T06:49:52.659Z,68.55
2022-08-16T06:52:02.723Z,68.59
2022-08-16T06:54:05.709Z,68.73
2022-08-16T06:56:14.795Z,68.51
2022-08-16T06:58:31.422Z,68.02
2022-08-16T07:00:33.867Z,67.73
2022-08-16T07:02:38.401Z,67.74
2022-08-16T07:04:53.663Z,67.81
2022-08-16T07:06:58.491Z,67.90
2022-08-16T07:09:01.895Z,67.81
2022-08-16T07:11:04.326Z,67.65
2022-08-16T07:13:12.146Z,67.27
2022-08-16T07:15:18.837Z,67.33
2022-08-16T07:17:22.988Z,67.32
2022-08-16T07:20:01.568Z,67.24
2022-08-16T07:21:59.411Z,67.25
2022-08-16T07:24:06.118Z,67.10
2022-08-16T07:26:24.384Z,66.68
2022-08-16T07:28:27.659Z,66.53
2022-08-16T07:30:46.072Z,66.48
2022-08-16T07:32:51.640Z,66.41
2022-08-16T07:34:53.669Z,66.53
2022-08-16T07:36:58.015Z,66.87
2022-08-16T07:39:00.734Z,66.29
2022-08-16T07:41:09.373Z,66.31
2022-08-16T07:43:12.140Z,67.01
2022-08-16T07:45:14.453Z,66.98
2022-08-16T07:47:19.024Z,67.13
2022-08-16T07:49:22.404Z,66.03
2022-08-16T07:51:24.104Z,66.38
2022-08-16T07:53:29.066Z,66.15
2022-08-16T07:55:45.827Z,66.39
2022-08-16T07:58:05.029Z,66.53
2022-08-16T08:00:08.252Z,66.24
2022-08-16T08:02:21.068Z,66.31
2022-08-16T08:04:23.050Z,65.69
2022-08-16T08:06:28.704Z,65.89
2022-08-16T08:08:50.471Z,65.83
2022-08-16T08:10:52.254Z,66.15
2022-08-16T08:12:55.104Z,66.26
2022-08-16T08:15:01.562Z,66.20
2022-08-16T08:17:08.586Z,66.15
2022-08-16T08:19:12.922Z,66.11
2022-08-16T08:21:14.829Z,65.66
2022-08-16T08:23:21.456Z,65.46
2022-08-16T08:25:23.218Z,65.39
2022-08-16T08:27:25.127Z,65.30
2022-08-16T08:29:36.728Z,65.80
2022-08-16T08:31:42.408Z,65.75
2022-08-16T08:33:47.558Z,65.70
2022-08-16T08:35:57.605Z,65.18
2022-08-16T08:38:08.618Z,64.77
2022-08-16T08:40:12.108Z,64.23
2022-08-16T08:42:16.006Z,64.23
2022-08-16T08:44:30.763Z,64.03
2022-08-16T08:46:35.711Z,63.90
2022-08-16T08:48:38.335Z,64.60
2022-08-16T08:50:49.968Z,64.37
2022-08-16T08:52:53.836Z,64.14
2022-08-16T08:54:55.633Z,64.03
2022-08-16T08:56:57.507Z,64.15
2022-08-16T08:59:01.064Z,64.12
2022-08-16T09:01:08.178Z,64.11
2022-08-16T09:03:11.219Z,64.06
2022-08-16T09:05:16.108Z,64.56
2022-08-16T09:07:18.227Z,64.69
2022-08-16T09:09:22.027Z,64.91
2022-08-16T09:11:24.091Z,64.67
2022-08-16T09:13:47.380Z,64.55
2022-08-16T09:15:51.893Z,64.99
2022-08-16T09:17:55.663Z,64.97
2022-08-16T09:19:59.411Z,65.20
2022-08-16T09:22:03.955Z,65.19
2022-08-16T09:24:10.087Z,65.63
2022-08-16T09:26:45.549Z,65.99
2022-08-16T09:29:14.402Z,66.39
2022-08-16T09:31:10.766Z,67.09
2022-08-16T09:33:19.641Z,66.79
2022-08-16T09:35:22.518Z,66.92
2022-08-16T09:37:30.033Z,66.93
2022-08-16T09:39:41.710Z,66.93
2022-08-16T09:45:46.657Z,66.60
2022-08-16T09:47:57.224Z,66.36
2022-08-16T09:49:59.823Z,66.62
2022-08-16T09:52:02.961Z,66.24
2022-08-16T09:54:16.737Z,66.66
2022-08-16T09:56:29.123Z,66.35
2022-08-16T09:58:40.832Z,66.88
2022-08-16T10:00:45.596Z,66.67
2022-08-16T10:02:48.107Z,66.07
2022-08-16T10:04:54.876Z,65.17
2022-08-16T10:09:10.603Z,65.37
2022-08-16T10:11:50.031Z,64.58
2022-08-16T10:13:52.379Z,64.76
2022-08-16T10:16:00.460Z,64.86
2022-08-16T10:18:54.012Z,65.42
2022-08-16T10:20:36.406Z,66.10
2022-08-16T10:22:39.666Z,66.31
2022-08-16T10:24:55.745Z,66.13
2022-08-16T10:27:25.229Z,65.93
2022-08-16T10:29:26.323Z,65.91
2022-08-16T10:31:53.281Z,65.80
2022-08-16T10:33:56.095Z,65.93
2022-08-16T10:36:03.332Z,65.71
2022-08-16T10:38:06.577Z,65.21
2022-08-16T10:40:29.693Z,64.78
2022-08-16T10:42:34.941Z,64.38
2022-08-16T10:44:37.071Z,63.85
2022-08-16T10:46:42.832Z,63.56
2022-08-16T10:48:47.243Z,63.26
2022-08-16T10:50:50.140Z,62.61
2022-08-16T10:52:58.635Z,63.51
2022-08-16T10:57:24.440Z,63.36
2022-08-16T10:59:39.118Z,63.02
2022-08-16T11:06:34.988Z,62.89
2022-08-16T11:08:43.336Z,63.20
2022-08-16T11:11:12.686Z,64.03
2022-08-16T11:13:57.495Z,64.30
2022-08-16T11:15:54.435Z,64.50
2022-08-16T11:22:48.435Z,64.90
2022-08-16T11:25:11.793Z,65.14
2022-08-16T11:27:23.330Z,65.60
2022-08-16T11:29:26.779Z,65.72
2022-08-16T11:31:29.128Z,65.29
2022-08-16T11:38:47.038Z,64.67
2022-08-16T11:40:52.626Z,64.26
2022-08-16T11:42:54.808Z,63.70
2022-08-16T11:44:57.157Z,63.26
2022-08-16T11:46:59.897Z,63.63
2022-08-16T11:49:07.661Z,63.50
2022-08-16T11:51:13.148Z,63.98
2022-08-16T11:53:15.211Z,63.60
2022-08-16T11:55:17.869Z,63.44
2022-08-16T11:57:19.623Z,63.59
2022-08-16T11:59:25.315Z,63.08
2022-08-16T12:05:14.519Z,60.71
2022-08-16T12:07:17.171Z,60.52
2022-08-16T12:09:18.998Z,59.99
2022-08-16T12:11:21.874Z,59.79
2022-08-16T12:13:24.163Z,59.96
2022-08-16T12:15:28.896Z,60.22
2022-08-16T12:17:33.265Z,60.70
2022-08-16T12:19:36.008Z,61.33
2022-08-16T12:21:58.792Z,61.86
2022-08-16T12:24:02.500Z,62.58
2022-08-16T12:26:06.224Z,63.02
2022-08-16T12:28:12.592Z,63.74
2022-08-16T12:30:21.549Z,63.75
2022-08-16T12:32:39.481Z,63.10
2022-08-16T12:34:48.080Z,61.51
2022-08-16T12:36:52.786Z,61.31
2022-08-16T12:38:55.277Z,60.77
2022-08-16T12:40:58.575Z,60.60
2022-08-16T12:43:01.023Z,60.09
2022-08-16T12:45:05.541Z,60.00
2022-08-16T12:47:28.998Z,60.18
2022-08-16T12:49:31.057Z,59.78
2022-08-16T12:51:59.260Z,59.39
2022-08-16T12:54:04.352Z,59.42
2022-08-16T12:56:07.197Z,59.39
2022-08-16T12:58:48.912Z,58.78
2022-08-16T13:00:35.680Z,58.26
2022-08-16T13:02:37.432Z,58.48
2022-08-16T13:04:39.083Z,58.85
2022-08-16T13:06:54.423Z,59.32
2022-08-16T13:09:00.542Z,59.97
2022-08-16T13:11:04.298Z,60.27
2022-08-16T13:13:08.832Z,60.48
2022-08-16T13:15:15.289Z,61.17
2022-08-16T13:17:26.396Z,61.44
2022-08-16T13:20:09.224Z,61.14
2022-08-16T13:22:12.003Z,61.73
2022-08-16T13:24:21.564Z,61.49
2022-08-16T13:26:26.390Z,61.61
2022-08-16T13:28:28.497Z,61.79
2022-08-16T13:30:37.336Z,62.18
2022-08-16T13:32:43.243Z,62.09
2022-08-16T13:34:45.319Z,62.00
2022-08-16T13:36:51.496Z,61.72
2022-08-16T13:38:53.731Z,61.33
2022-08-16T13:40:57.200Z,60.98
2022-08-16T13:43:00.292Z,61.00
2022-08-16T13:45:01.994Z,61.23
2022-08-16T13:47:04.401Z,60.83
2022-08-16T13:49:06.917Z,60.81
2022-08-16T13:51:08.643Z,61.16
2022-08-16T13:53:17.526Z,61.18
2022-08-16T13:55:19.192Z,61.03
2022-08-16T13:57:20.931Z,60.87
2022-08-16T13:59:45.449Z,60.71
2022-08-16T14:01:54.914Z,60.63
2022-08-16T14:03:57.790Z,60.89
2022-08-16T14:06:00.395Z,60.98
2022-08-16T14:08:02.104Z,61.13
2022-08-16T14:10:10.106Z,61.22
2022-08-16T14:12:28.168Z,61.47
2022-08-16T14:14:31.503Z,61.29
2022-08-16T14:16:36.842Z,61.28
2022-08-16T14:18:38.671Z,60.93
2022-08-16T14:20:48.454Z,60.83
2022-08-16T14:22:52.250Z,61.17
2022-08-16T14:24:59.693Z,60.55
2022-08-16T14:27:04.263Z,60.89
2022-08-16T14:29:06.647Z,60.91
2022-08-16T14:31:09.542Z,60.99
2022-08-16T14:33:11.878Z,61.62
2022-08-16T14:35:18.466Z,62.18
2022-08-16T14:37:20.595Z,62.24
2022-08-16T14:39:24.483Z,62.12
2022-08-16T14:41:27.949Z,61.79
2022-08-16T14:43:30.851Z,62.23
2022-08-16T14:45:32.811Z,62.49
2022-08-16T14:47:38.525Z,62.94
2022-08-16T14:49:42.936Z,63.04
2022-08-16T14:51:46.402Z,62.51
2022-08-16T14:53:52.030Z,62.35
2022-08-16T14:55:55.203Z,62.24
2022-08-16T14:57:57.914Z,63.11
2022-08-16T15:00:05.549Z,63.20
2022-08-16T15:02:22.267Z,63.39
2022-08-16T15:04:40.538Z,62.66
2022-08-16T15:06:51.652Z,62.79
2022-08-16T15:08:53.468Z,62.66
2022-08-16T15:10:59.001Z,62.70
2022-08-16T15:13:01.524Z,63.26
2022-08-16T15:15:16.396Z,63.17
2022-08-16T15:17:25.396Z,63.58
2022-08-16T15:19:29.213Z,64.01
2022-08-16T15:21:33.621Z,64.28
2022-08-16T15:23:36.442Z,64.66
2022-08-16T15:25:44.378Z,64.93
2022-08-16T15:27:55.169Z,65.31
2022-08-16T15:29:58.360Z,65.26
2022-08-16T15:32:00.984Z,65.75
2022-08-16T15:34:03.466Z,65.48
2022-08-16T15:36:05.682Z,66.00
2022-08-16T15:38:10.735Z,65.42
2022-08-16T15:40:35.746Z,65.44
2022-08-16T15:42:38.096Z,65.37
2022-08-16T15:44:52.197Z,62.42
2022-08-16T15:46:59.919Z,60.29
2022-08-16T15:49:04.597Z,60.01
2022-08-16T15:51:08.264Z,58.32
2022-08-16T15:53:15.660Z,56.68
2022-08-16T15:55:34.827Z,55.86
2022-08-16T15:57:51.666Z,54.14
2022-08-16T15:59:55.786Z,54.12
2022-08-16T16:01:58.696Z,54.43
2022-08-16T16:04:00.415Z,54.00
2022-08-16T16:06:03.680Z,54.75
2022-08-16T16:08:11.699Z,55.12
2022-08-16T16:10:16.187Z,55.12
2022-08-16T16:12:50.430Z,55.46
2022-08-16T16:14:39.774Z,55.78
2022-08-16T16:16:44.460Z,54.88
2022-08-16T16:18:49.031Z,53.15
2022-08-16T16:20:53.824Z,52.05
2022-08-16T16:23:00.140Z,51.77
2022-08-16T16:25:01.827Z,50.19
2022-08-16T16:27:06.623Z,48.82
2022-08-16T16:29:14.601Z,49.55
2022-08-16T16:31:19.062Z,50.52
2022-08-16T16:33:24.547Z,51.29
2022-08-16T16:35:28.287Z,51.50
2022-08-16T16:37:34.526Z,51.94
2022-08-16T16:39:38.825Z,52.33
2022-08-16T16:41:42.272Z,53.17
2022-08-16T16:43:44.689Z,54.09
2022-08-16T16:45:46.611Z,55.42
2022-08-16T16:47:54.376Z,56.25
2022-08-16T16:49:56.585Z,57.19
2022-08-16T16:52:06.618Z,57.78
2022-08-16T16:54:09.914Z,58.60
2022-08-16T16:56:19.481Z,58.44
2022-08-16T16:58:43.203Z,57.91
2022-08-16T17:00:51.616Z,58.75
2022-08-16T17:02:58.470Z,58.33
2022-08-16T17:05:04.366Z,58.28
2022-08-16T17:07:12.348Z,58.14
2022-08-16T17:09:14.590Z,57.14
2022-08-16T17:11:16.410Z,57.78
2022-08-16T17:13:22.497Z,57.72
2022-08-16T17:15:26.257Z,57.06
2022-08-16T17:17:59.270Z,56.48
2022-08-16T17:20:00.477Z,55.88
2022-08-16T17:22:02.454Z,56.35
2022-08-16T17:24:17.937Z,56.11
2022-08-16T17:26:20.975Z,55.85
2022-08-16T17:29:00.007Z,55.39
2022-08-16T17:30:45.199Z,55.45
2022-08-16T17:32:54.310Z,55.20
2022-08-16T17:35:18.394Z,55.69
2022-08-16T17:37:22.300Z,55.60
2022-08-16T17:39:56.847Z,55.25
2022-08-16T17:42:04.685Z,55.10
2022-08-16T17:44:08.798Z,54.95
2022-08-16T17:46:51.763Z,55.31
2022-08-16T17:48:36.386Z,55.70
2022-08-16T17:50:39.416Z,55.69
2022-08-16T17:52:48.859Z,54.83
2022-08-16T17:54:51.671Z,54.78
2022-08-16T17:56:54.077Z,55.08
2022-08-16T17:58:56.304Z,55.32
2022-08-16T18:01:00.006Z,55.73
2022-08-16T18:03:02.835Z,55.87
2022-08-16T18:05:07.761Z,56.22
2022-08-16T18:07:10.128Z,56.65
2022-08-16T18:09:15.458Z,56.43
2022-08-16T18:11:25.673Z,56.95
2022-08-16T18:13:28.860Z,56.92
2022-08-16T18:15:31.250Z,57.27
2022-08-16T18:17:34.736Z,57.77
2022-08-16T18:19:37.131Z,57.60
2022-08-16T18:22:00.405Z,57.83
2022-08-16T18:24:02.198Z,57.59
2022-08-16T18:26:04.641Z,57.57
2022-08-16T18:28:06.355Z,57.50
2022-08-16T18:30:08.420Z,57.60
2022-08-16T18:32:10.939Z,57.90
2022-08-16T18:34:12.648Z,58.09
2022-08-16T18:36:20.927Z,58.08
2022-08-16T18:38:23.262Z,58.46
2022-08-16T18:40:25.278Z,58.41
2022-08-16T18:42:26.975Z,58.64
2022-08-16T18:44:32.201Z,58.70
2022-08-16T18:46:41.992Z,58.54
2022-08-16T18:48:43.728Z,58.38
2022-08-16T18:51:03.513Z,58.59
2022-08-16T18:53:15.936Z,58.78
2022-08-16T18:55:18.032Z,59.40
2022-08-16T18:57:19.763Z,59.97
2022-08-16T18:59:21.528Z,60.25
2022-08-16T19:01:23.191Z,60.33
2022-08-16T19:03:28.208Z,60.73
2022-08-16T19:05:31.103Z,61.25
2022-08-16T19:07:32.835Z,61.65
2022-08-16T19:09:34.507Z,61.97
2022-08-16T19:11:36.224Z,62.08
2022-08-16T19:13:38.091Z,62.47
2022-08-16T19:15:42.275Z,62.89
2022-08-16T19:17:45.262Z,63.07
2022-08-16T19:19:46.911Z,63.29
2022-08-16T19:21:50.462Z,63.48
2022-08-16T19:23:52.865Z,63.33
2022-08-16T19:26:00.139Z,63.61
2022-08-16T19:28:03.073Z,63.58
2022-08-16T19:30:11.965Z,63.77
2022-08-16T19:32:24.344Z,63.79
2022-08-16T19:34:28.712Z,64.01
2022-08-16T19:36:36.934Z,64.39
2022-08-16T19:38:39.079Z,64.16
2022-08-16T19:40:41.030Z,64.35
2022-08-16T19:42:48.180Z,64.61
2022-08-16T19:44:51.912Z,64.93
2022-08-16T19:46:53.558Z,64.99
2022-08-16T19:48:55.301Z,65.15
2022-08-16T19:50:59.040Z,65.40
2022-08-16T19:53:02.407Z,65.42
2022-08-16T19:55:22.633Z,65.81
2022-08-16T19:57:24.634Z,65.91
2022-08-16T19:59:39.284Z,65.56
2022-08-16T20:01:43.176Z,65.64
2022-08-16T20:03:45.207Z,65.89
2022-08-16T20:05:50.380Z,66.31
2022-08-16T20:07:52.049Z,66.07
2022-08-16T20:09:57.504Z,66.24
2022-08-16T20:12:05.387Z,66.52
2022-08-16T20:14:07.062Z,66.51
2022-08-16T20:16:08.913Z,66.63
2022-08-16T20:18:24.392Z,66.44
2022-08-16T20:20:28.418Z,66.48
2022-08-16T20:22:52.876Z,66.44
2022-08-16T20:24:54.892Z,67.30
2022-08-16T20:26:57.500Z,67.70
2022-08-16T20:28:59.126Z,67.41
2022-08-16T20:31:03.689Z,67.12
2022-08-16T20:33:13.446Z,66.80
2022-08-16T20:35:18.177Z,66.69
2022-08-16T20:37:21.977Z,66.92
2022-08-16T20:39:27.085Z,67.23
2022-08-16T20:41:28.901Z,67.71
2022-08-16T20:43:30.616Z,67.45
2022-08-16T20:45:32.470Z,67.42
2022-08-16T20:47:34.364Z,67.84
2022-08-16T20:49:36.724Z,67.83
2022-08-16T20:51:50.869Z,67.64
2022-08-16T20:53:55.561Z,67.17
2022-08-16T20:55:57.228Z,67.15
2022-08-16T20:57:58.922Z,67.68
2022-08-16T21:00:00.591Z,67.57
2022-08-16T21:02:02.817Z,68.25
2022-08-16T21:04:05.210Z,68.37
2022-08-16T21:06:07.227Z,68.12
2022-08-16T21:08:51.021Z,68.20
2022-08-16T21:10:33.592Z,67.96
2022-08-16T21:12:37.820Z,67.93
2022-08-16T21:14:42.922Z,68.44
2022-08-16T21:16:44.930Z,68.34
2022-08-16T21:18:46.793Z,67.84
2022-08-16T21:20:48.479Z,67.86
2022-08-16T21:23:10.265Z,67.67
2022-08-16T21:25:12.750Z,68.06
2022-08-16T21:27:17.532Z,68.02
2022-08-16T21:29:19.512Z,68.18
2022-08-16T21:31:21.660Z,67.95
2022-08-16T21:33:23.510Z,67.67
2022-08-16T21:35:25.182Z,67.81
2022-08-16T21:37:26.908Z,68.08
2022-08-16T21:39:28.610Z,68.12
2022-08-16T21:41:31.130Z,68.25
2022-08-16T21:43:33.512Z,68.65
2022-08-16T21:45:35.957Z,68.69
2022-08-16T21:47:40.767Z,68.87
2022-08-16T21:49:42.610Z,68.60
2022-08-16T21:51:47.304Z,68.79
2022-08-16T21:53:51.594Z,68.89
2022-08-16T21:55:55.489Z,68.53
2022-08-16T21:57:57.137Z,68.24
2022-08-16T21:59:58.821Z,68.02
2022-08-16T22:02:00.623Z,68.46
2022-08-16T22:04:37.652Z,68.64
2022-08-16T22:06:26.160Z,68.18
2022-08-16T22:08:32.978Z,68.16
2022-08-16T22:11:04.782Z,68.08
2022-08-16T22:12:59.864Z,68.35
2022-08-16T22:15:01.524Z,68.66
2022-08-16T22:17:03.388Z,68.45
2022-08-16T22:19:05.754Z,68.63
2022-08-16T22:21:07.439Z,68.39
2022-08-16T22:23:13.828Z,68.52
2022-08-16T22:25:17.585Z,68.51
2022-08-16T22:27:19.318Z,68.71
2022-08-16T22:29:24.066Z,68.83
2022-08-16T22:31:26.034Z,68.66
2022-08-16T22:33:28.412Z,68.85
2022-08-16T22:35:31.417Z,68.66
2022-08-16T22:37:33.136Z,68.53
2022-08-16T22:39:34.828Z,68.72
2022-08-16T22:41:37.649Z,68.92
2022-08-16T22:43:39.665Z,68.85
2022-08-16T22:45:41.274Z,68.82
2022-08-16T22:47:43.013Z,68.90
2022-08-16T22:49:44.671Z,68.74
2022-08-16T22:51:46.482Z,68.88
2022-08-16T22:53:48.337Z,68.19
2022-08-16T22:55:51.264Z,67.81
2022-08-16T22:57:53.715Z,67.56
2022-08-16T22:59:55.448Z,67.59
2022-08-16T23:01:58.367Z,68.31
2022-08-16T23:04:00.649Z,68.49
2022-08-16T23:06:02.536Z,68.61
2022-08-16T23:08:06.122Z,68.74
2022-08-16T23:10:08.336Z,68.59
2022-08-16T23:12:10.966Z,68.33
2022-08-16T23:14:12.863Z,68.48
2022-08-16T23:16:22.226Z,68.45
2022-08-16T23:18:28.265Z,68.37
2022-08-16T23:20:29.950Z,68.34
2022-08-16T23:23:19.035Z,68.45
2022-08-16T23:25:16.221Z,68.10
2022-08-16T23:27:18.030Z,68.40
2022-08-16T23:29:24.368Z,68.35
2022-08-16T23:31:27.949Z,68.46
2022-08-16T23:33:29.699Z,68.66
2022-08-16T23:35:44.878Z,68.72
2022-08-16T23:37:47.402Z,69.09
2022-08-16T23:39:49.268Z,69.46
2022-08-16T23:41:56.471Z,69.34
2022-08-16T23:43:58.239Z,68.97
2022-08-16T23:46:06.688Z,68.91
2022-08-16T23:48:12.699Z,68.68
2022-08-16T23:50:15.442Z,68.30
2022-08-16T23:52:17.254Z,68.53
2022-08-16T23:54:20.486Z,68.52
2022-08-16T23:56:22.204Z,68.22
2022-08-16T23:58:26.788Z,67.95
